createdAt,value
2017-08-23T00:00:22.554Z,14.65
2017-08-23T00:00:50.571Z,14.61
2017-08-23T00:01:18.620Z,14.61
2017-08-23T00:01:47.444Z,14.64
2017-08-23T00:02:16.192Z,14.7
2017-08-23T00:02:44.675Z,14.73
2017-08-23T00:03:12.651Z,14.75
2017-08-23T00:03:40.628Z,14.75
2017-08-23T00:04:08.478Z,14.72
2017-08-23T00:04:36.532Z,14.77
2017-08-23T00:05:04.585Z,14.78
2017-08-23T00:05:32.546Z,14.83
2017-08-23T00:06:00.521Z,14.86
2017-08-23T00:06:28.482Z,14.88
2017-08-23T00:06:56.534Z,14.84
2017-08-23T00:07:25.271Z,14.84
2017-08-23T00:07:53.318Z,14.86
2017-08-23T00:08:21.517Z,14.91
2017-08-23T00:08:50.263Z,14.83
2017-08-23T00:09:18.314Z,14.86
2017-08-23T00:09:46.369Z,14.86
2017-08-23T00:10:14.426Z,14.91
2017-08-23T00:10:42.492Z,14.86
2017-08-23T00:11:10.450Z,14.89
2017-08-23T00:11:38.501Z,14.83
2017-08-23T00:12:06.697Z,14.86
2017-08-23T00:12:34.656Z,14.89
2017-08-23T00:13:02.706Z,14.96
2017-08-23T00:13:30.757Z,14.88
2017-08-23T00:13:58.802Z,14.91
2017-08-23T00:14:26.857Z,14.94
2017-08-23T00:14:54.909Z,14.95
2017-08-23T00:15:23.660Z,14.89
2017-08-23T00:15:52.415Z,14.98
2017-08-23T00:16:21.364Z,15.02
2017-08-23T00:16:49.326Z,15.02
2017-08-23T00:17:17.422Z,14.98
2017-08-23T00:17:45.446Z,15.03
2017-08-23T00:18:13.498Z,15.06
2017-08-23T00:18:41.362Z,14.98
2017-08-23T00:19:09.326Z,15.03
2017-08-23T00:19:37.276Z,15.06
2017-08-23T00:20:05.242Z,15.01
2017-08-23T00:20:34.077Z,15.07
2017-08-23T00:21:02.029Z,14.99
2017-08-23T00:21:32.428Z,15.02
2017-08-23T00:22:00.293Z,15.02
2017-08-23T00:22:28.352Z,15.06
2017-08-23T00:22:56.318Z,15.07
2017-08-23T00:23:25.151Z,14.98
2017-08-23T00:23:53.114Z,15.01
2017-08-23T00:24:21.936Z,15.02
2017-08-23T00:24:49.988Z,15.02
2017-08-23T00:25:18.039Z,14.96
2017-08-23T00:25:46.776Z,14.98
2017-08-23T00:26:15.522Z,14.99
2017-08-23T00:26:43.398Z,15.09
2017-08-23T00:27:11.891Z,15.06
2017-08-23T00:27:39.942Z,14.99
2017-08-23T00:28:08.011Z,15.03
2017-08-23T00:28:37.622Z,14.99
2017-08-23T00:29:06.370Z,15.03
2017-08-23T00:29:34.327Z,14.99
2017-08-23T00:30:02.280Z,15.11
2017-08-23T00:30:30.315Z,14.99
2017-08-23T00:30:58.357Z,14.98
2017-08-23T00:31:26.303Z,14.96
2017-08-23T00:31:54.260Z,15.07
2017-08-23T00:32:23.089Z,15.09
2017-08-23T00:32:51.147Z,15.03
2017-08-23T00:33:19.205Z,15.01
2017-08-23T00:33:47.180Z,15.01
2017-08-23T00:34:15.150Z,15.02
2017-08-23T00:34:43.193Z,14.96
2017-08-23T00:35:11.236Z,14.98
2017-08-23T00:35:39.289Z,15.02
2017-08-23T00:36:07.362Z,15.01
2017-08-23T00:36:35.401Z,15.06
2017-08-23T00:37:04.216Z,15.02
2017-08-23T00:37:32.267Z,14.98
2017-08-23T00:38:01.096Z,15.03
2017-08-23T00:38:29.826Z,14.98
2017-08-23T00:39:36.150Z,15.03
2017-08-23T00:40:04.976Z,15.02
2017-08-23T00:40:32.930Z,14.98
2017-08-23T00:41:02.535Z,15.01
2017-08-23T00:41:30.587Z,14.99
2017-08-23T00:42:00.202Z,15.02
2017-08-23T00:42:28.351Z,15.03
2017-08-23T00:42:56.320Z,15.02
2017-08-23T00:43:24.353Z,15.03
2017-08-23T00:43:52.220Z,15.02
2017-08-23T00:44:20.201Z,15.02
2017-08-23T00:44:48.223Z,14.99
2017-08-23T00:45:17.054Z,14.96
2017-08-23T00:45:45.887Z,15.03
2017-08-23T00:46:14.712Z,14.95
2017-08-23T00:46:42.744Z,15.02
2017-08-23T00:47:11.471Z,15.03
2017-08-23T00:47:39.248Z,15.01
2017-08-23T00:48:07.290Z,15.03
2017-08-23T00:48:35.340Z,15.02
2017-08-23T00:49:04.178Z,15.02
2017-08-23T00:49:32.243Z,15.02
2017-08-23T00:50:00.299Z,15.03
2017-08-23T00:50:28.354Z,15.02
2017-08-23T00:50:56.751Z,14.99
2017-08-23T00:51:24.796Z,14.99
2017-08-23T00:51:52.840Z,15.02
2017-08-23T00:52:20.803Z,15.02
2017-08-23T00:52:48.915Z,14.99
2017-08-23T00:53:16.867Z,14.99
2017-08-23T00:53:45.704Z,14.94
2017-08-23T00:54:13.759Z,14.91
2017-08-23T00:54:41.815Z,14.98
2017-08-23T00:55:09.868Z,14.99
2017-08-23T00:55:38.705Z,14.91
2017-08-23T00:56:06.750Z,14.89
2017-08-23T00:56:34.799Z,14.96
2017-08-23T00:57:02.662Z,15.03
2017-08-23T00:57:31.922Z,15.06
2017-08-23T00:58:00.746Z,15.02
2017-08-23T00:58:29.794Z,15.09
2017-08-23T00:58:58.629Z,15.02
2017-08-23T00:59:26.634Z,15.02
2017-08-23T00:59:54.635Z,14.99
2017-08-23T01:00:23.457Z,15.03
2017-08-23T01:00:51.608Z,15.02
2017-08-23T01:01:19.669Z,15.01
2017-08-23T01:01:47.729Z,15.03
2017-08-23T01:02:15.798Z,15.01
2017-08-23T01:02:46.198Z,15.03
2017-08-23T01:03:15.035Z,15.02
2017-08-23T01:03:42.994Z,15.02
2017-08-23T01:04:11.057Z,15.07
2017-08-23T01:04:39.805Z,15.06
2017-08-23T01:05:07.856Z,15.02
2017-08-23T01:05:35.928Z,15.06
2017-08-23T01:06:03.968Z,14.98
2017-08-23T01:06:33.581Z,14.89
2017-08-23T01:07:02.235Z,15.02
2017-08-23T01:07:29.929Z,15.02
2017-08-23T01:07:58.758Z,14.94
2017-08-23T01:08:26.721Z,14.99
2017-08-23T01:08:54.671Z,14.95
2017-08-23T01:09:23.503Z,15.02
2017-08-23T01:09:52.323Z,14.89
2017-08-23T01:10:20.361Z,15.02
2017-08-23T01:10:48.399Z,14.91
2017-08-23T01:11:16.441Z,14.96
2017-08-23T01:11:44.490Z,14.92
2017-08-23T01:12:12.558Z,14.94
2017-08-23T01:12:40.762Z,14.86
2017-08-23T01:13:08.807Z,14.96
2017-08-23T01:13:36.864Z,14.95
2017-08-23T01:14:05.599Z,14.91
2017-08-23T01:14:34.334Z,14.92
2017-08-23T01:15:03.177Z,14.98
2017-08-23T01:15:32.016Z,14.88
2017-08-23T01:16:00.837Z,14.99
2017-08-23T01:16:29.600Z,14.92
2017-08-23T01:16:57.641Z,14.92
2017-08-23T01:17:25.599Z,14.94
2017-08-23T01:17:54.328Z,14.96
2017-08-23T01:19:00.658Z,14.89
2017-08-23T01:19:28.612Z,14.89
2017-08-23T01:19:56.663Z,15.02
2017-08-23T01:20:24.701Z,15.02
2017-08-23T01:20:52.743Z,14.92
2017-08-23T01:21:20.795Z,14.95
2017-08-23T01:21:48.836Z,14.88
2017-08-23T01:22:17.676Z,14.96
2017-08-23T01:22:45.723Z,14.98
2017-08-23T01:23:13.719Z,14.96
2017-08-23T01:23:42.651Z,14.94
2017-08-23T01:24:10.722Z,14.92
2017-08-23T01:24:38.657Z,14.94
2017-08-23T01:25:06.523Z,14.89
2017-08-23T01:25:34.473Z,14.83
2017-08-23T01:26:03.317Z,14.86
2017-08-23T01:26:31.268Z,14.86
2017-08-23T01:26:59.228Z,14.89
2017-08-23T01:27:28.047Z,14.86
2017-08-23T01:27:56.021Z,14.89
2017-08-23T01:28:23.926Z,14.91
2017-08-23T01:28:52.779Z,14.92
2017-08-23T01:29:21.615Z,14.86
2017-08-23T01:29:51.926Z,14.83
2017-08-23T01:30:19.974Z,14.81
2017-08-23T01:30:47.953Z,14.83
2017-08-23T01:31:16.005Z,14.86
2017-08-23T01:31:44.072Z,14.89
2017-08-23T01:32:12.123Z,14.88
2017-08-23T01:32:41.049Z,14.86
2017-08-23T01:33:09.911Z,14.83
2017-08-23T01:33:37.939Z,14.8
2017-08-23T01:34:06.773Z,14.78
2017-08-23T01:34:34.824Z,14.83
2017-08-23T01:35:02.776Z,14.86
2017-08-23T01:35:30.827Z,14.72
2017-08-23T01:35:58.789Z,14.83
2017-08-23T01:36:27.612Z,14.86
2017-08-23T01:36:57.140Z,14.78
2017-08-23T01:37:25.872Z,14.86
2017-08-23T01:37:54.526Z,14.81
2017-08-23T01:38:22.573Z,14.78
2017-08-23T01:38:50.628Z,14.86
2017-08-23T01:39:19.379Z,14.69
2017-08-23T01:39:47.331Z,14.81
2017-08-23T01:40:15.382Z,14.69
2017-08-23T01:40:43.437Z,14.77
2017-08-23T01:41:11.405Z,14.73
2017-08-23T01:41:39.376Z,14.7
2017-08-23T01:42:07.432Z,14.83
2017-08-23T01:42:35.395Z,14.72
2017-08-23T01:43:03.595Z,14.72
2017-08-23T01:43:32.244Z,14.72
2017-08-23T01:44:00.205Z,14.7
2017-08-23T01:44:28.258Z,14.8
2017-08-23T01:44:56.313Z,14.81
2017-08-23T01:45:24.368Z,14.7
2017-08-23T01:45:52.324Z,14.7
2017-08-23T01:46:20.378Z,14.65
2017-08-23T01:46:48.441Z,14.72
2017-08-23T01:47:16.492Z,14.73
2017-08-23T01:47:44.549Z,14.72
2017-08-23T01:48:12.531Z,14.73
2017-08-23T01:48:41.343Z,14.75
2017-08-23T01:49:09.373Z,14.77
2017-08-23T01:49:37.417Z,14.69
2017-08-23T01:50:06.153Z,14.77
2017-08-23T01:50:34.989Z,14.73
2017-08-23T01:51:03.033Z,14.68
2017-08-23T01:51:30.996Z,14.64
2017-08-23T01:52:00.620Z,14.64
2017-08-23T01:52:31.024Z,14.72
2017-08-23T01:52:59.087Z,14.68
2017-08-23T01:53:27.134Z,14.64
2017-08-23T01:53:55.180Z,14.65
2017-08-23T01:54:23.152Z,14.64
2017-08-23T01:54:51.987Z,14.68
2017-08-23T01:55:20.025Z,14.75
2017-08-23T01:55:48.054Z,14.65
2017-08-23T01:56:16.017Z,14.69
2017-08-23T01:56:43.975Z,14.68
2017-08-23T01:57:12.017Z,14.65
2017-08-23T01:58:19.229Z,14.61
2017-08-23T01:58:47.275Z,14.64
2017-08-23T01:59:16.019Z,14.61
2017-08-23T01:59:43.986Z,14.65
2017-08-23T02:00:12.821Z,14.75
2017-08-23T02:00:42.351Z,14.6
2017-08-23T02:01:10.400Z,14.58
2017-08-23T02:01:38.271Z,14.62
2017-08-23T02:02:07.093Z,14.72
2017-08-23T02:02:35.142Z,14.65
2017-08-23T02:03:03.098Z,14.61
2017-08-23T02:03:31.147Z,14.65
2017-08-23T02:03:59.191Z,14.64
2017-08-23T02:04:27.405Z,14.75
2017-08-23T02:04:55.179Z,14.75
2017-08-23T02:05:24.002Z,14.68
2017-08-23T02:05:52.659Z,14.68
2017-08-23T02:06:20.706Z,14.72
2017-08-23T02:06:48.655Z,14.62
2017-08-23T02:07:16.606Z,14.61
2017-08-23T02:07:45.366Z,14.65
2017-08-23T02:08:13.348Z,14.64
2017-08-23T02:08:42.222Z,14.75
2017-08-23T02:09:10.278Z,14.64
2017-08-23T02:09:38.154Z,14.62
2017-08-23T02:10:06.205Z,14.72
2017-08-23T02:10:34.274Z,14.65
2017-08-23T02:11:02.331Z,14.64
2017-08-23T02:11:31.070Z,14.68
2017-08-23T02:11:59.027Z,14.68
2017-08-23T02:12:27.084Z,14.68
2017-08-23T02:12:55.738Z,14.62
2017-08-23T02:13:23.797Z,14.6
2017-08-23T02:13:52.551Z,14.62
2017-08-23T02:14:20.594Z,14.61
2017-08-23T02:14:48.644Z,14.61
2017-08-23T02:15:16.690Z,14.57
2017-08-23T02:15:44.735Z,14.54
2017-08-23T02:16:12.786Z,14.55
2017-08-23T02:16:40.883Z,14.57
2017-08-23T02:17:08.850Z,14.6
2017-08-23T02:17:36.768Z,14.54
2017-08-23T02:18:04.815Z,14.6
2017-08-23T02:18:33.553Z,14.55
2017-08-23T02:19:01.600Z,14.5
2017-08-23T02:19:30.344Z,14.47
2017-08-23T02:19:58.393Z,14.51
2017-08-23T02:20:26.360Z,14.51
2017-08-23T02:20:55.115Z,14.55
2017-08-23T02:21:23.168Z,14.55
2017-08-23T02:21:51.999Z,14.51
2017-08-23T02:22:20.743Z,14.52
2017-08-23T02:22:48.699Z,14.57
2017-08-23T02:23:17.452Z,14.55
2017-08-23T02:23:45.411Z,14.51
2017-08-23T02:24:14.248Z,14.52
2017-08-23T02:24:42.217Z,14.55
2017-08-23T02:25:10.969Z,14.54
2017-08-23T02:25:38.943Z,14.51
2017-08-23T02:26:06.910Z,14.52
2017-08-23T02:26:35.029Z,14.51
2017-08-23T02:27:03.079Z,14.58
2017-08-23T02:27:31.033Z,14.54
2017-08-23T02:27:59.854Z,14.55
2017-08-23T02:28:27.701Z,14.47
2017-08-23T02:28:56.632Z,14.57
2017-08-23T02:29:27.666Z,14.5
2017-08-23T02:29:55.707Z,14.51
2017-08-23T02:30:23.760Z,14.52
2017-08-23T02:30:51.818Z,14.46
2017-08-23T02:31:19.792Z,14.51
2017-08-23T02:31:48.615Z,14.47
2017-08-23T02:32:17.458Z,14.47
2017-08-23T02:32:45.418Z,14.57
2017-08-23T02:33:13.456Z,14.5
2017-08-23T02:33:41.516Z,14.47
2017-08-23T02:34:10.260Z,14.5
2017-08-23T02:34:38.994Z,14.51
2017-08-23T02:35:06.931Z,14.47
2017-08-23T02:35:34.981Z,14.57
2017-08-23T02:36:03.821Z,14.51
2017-08-23T02:36:32.639Z,14.4
2017-08-23T02:37:38.966Z,14.36
2017-08-23T02:38:06.919Z,14.39
2017-08-23T02:38:34.962Z,14.42
2017-08-23T02:39:02.825Z,14.52
2017-08-23T02:39:30.882Z,14.36
2017-08-23T02:39:58.933Z,14.36
2017-08-23T02:40:26.803Z,14.51
2017-08-23T02:40:54.859Z,14.5
2017-08-23T02:41:22.899Z,14.39
2017-08-23T02:41:50.949Z,14.37
2017-08-23T02:42:18.906Z,14.46
2017-08-23T02:42:46.858Z,14.43
2017-08-23T02:43:14.816Z,14.52
2017-08-23T02:43:42.878Z,14.39
2017-08-23T02:44:10.921Z,14.43
2017-08-23T02:44:39.746Z,14.4
2017-08-23T02:45:08.571Z,14.39
2017-08-23T02:45:37.399Z,14.43
2017-08-23T02:46:05.255Z,14.47
2017-08-23T02:46:33.299Z,14.43
2017-08-23T02:47:01.260Z,14.46
2017-08-23T02:47:29.319Z,14.47
2017-08-23T02:47:57.282Z,14.43
2017-08-23T02:48:25.333Z,14.42
2017-08-23T02:48:53.385Z,14.46
2017-08-23T02:49:21.427Z,14.39
2017-08-23T02:49:49.473Z,14.42
2017-08-23T02:50:17.431Z,14.43
2017-08-23T02:50:45.477Z,14.43
2017-08-23T02:51:13.440Z,14.55
2017-08-23T02:51:41.493Z,14.43
2017-08-23T02:52:09.542Z,14.45
2017-08-23T02:52:37.414Z,14.5
2017-08-23T02:53:05.372Z,14.4
2017-08-23T02:53:33.337Z,14.42
2017-08-23T02:54:01.292Z,14.55
2017-08-23T02:54:29.337Z,14.37
2017-08-23T02:54:57.204Z,14.43
2017-08-23T02:55:25.247Z,14.54
2017-08-23T02:55:54.072Z,14.46
2017-08-23T02:56:22.031Z,14.39
2017-08-23T02:56:49.898Z,14.37
2017-08-23T02:57:17.851Z,14.42
2017-08-23T02:57:45.899Z,14.37
2017-08-23T02:58:13.853Z,14.47
2017-08-23T02:58:41.908Z,14.5
2017-08-23T02:59:10.022Z,14.4
2017-08-23T02:59:37.989Z,14.45
2017-08-23T03:00:06.737Z,14.39
2017-08-23T03:00:34.790Z,14.36
2017-08-23T03:01:02.755Z,14.4
2017-08-23T03:01:30.802Z,14.54
2017-08-23T03:01:58.853Z,14.4
2017-08-23T03:02:26.904Z,14.46
2017-08-23T03:02:54.953Z,14.42
2017-08-23T03:03:23.695Z,14.39
2017-08-23T03:03:51.745Z,14.47
2017-08-23T03:04:19.709Z,14.45
2017-08-23T03:04:47.764Z,14.5
2017-08-23T03:05:15.818Z,14.36
2017-08-23T03:05:43.772Z,14.43
2017-08-23T03:06:12.606Z,14.51
2017-08-23T03:06:40.558Z,14.43
2017-08-23T03:07:09.385Z,14.46
2017-08-23T03:07:37.420Z,14.51
2017-08-23T03:08:05.465Z,14.51
2017-08-23T03:08:33.413Z,14.47
2017-08-23T03:09:01.465Z,14.55
2017-08-23T03:09:30.300Z,14.47
2017-08-23T03:09:58.355Z,14.37
2017-08-23T03:10:26.413Z,14.39
2017-08-23T03:10:54.457Z,14.5
2017-08-23T03:11:23.298Z,14.39
2017-08-23T03:11:51.345Z,14.42
2017-08-23T03:12:20.082Z,14.51
2017-08-23T03:12:48.144Z,14.5
2017-08-23T03:13:16.199Z,14.5
2017-08-23T03:13:44.239Z,14.4
2017-08-23T03:14:13.205Z,14.42
2017-08-23T03:14:41.069Z,14.47
2017-08-23T03:15:09.906Z,14.42
2017-08-23T03:15:38.640Z,14.46
2017-08-23T03:16:44.971Z,14.42
2017-08-23T03:17:13.798Z,14.42
2017-08-23T03:17:41.757Z,14.47
2017-08-23T03:18:09.795Z,14.5
2017-08-23T03:18:37.757Z,14.46
2017-08-23T03:19:05.812Z,14.47
2017-08-23T03:19:34.638Z,14.4
2017-08-23T03:20:02.698Z,14.51
2017-08-23T03:20:30.649Z,14.42
2017-08-23T03:20:58.705Z,14.42
2017-08-23T03:21:27.528Z,14.45
2017-08-23T03:21:56.344Z,14.42
2017-08-23T03:22:24.402Z,14.42
2017-08-23T03:22:52.177Z,14.43
2017-08-23T03:23:20.220Z,14.51
2017-08-23T03:23:48.266Z,14.42
2017-08-23T03:24:17.089Z,14.45
2017-08-23T03:24:45.040Z,14.47
2017-08-23T03:25:13.864Z,14.36
2017-08-23T03:25:41.908Z,14.45
2017-08-23T03:26:09.968Z,14.36
2017-08-23T03:26:37.931Z,14.35
2017-08-23T03:27:05.893Z,14.4
2017-08-23T03:27:34.726Z,14.45
2017-08-23T03:28:02.678Z,14.4
2017-08-23T03:28:30.633Z,14.39
2017-08-23T03:28:58.680Z,14.37
2017-08-23T03:29:27.133Z,14.4
2017-08-23T03:29:54.996Z,14.46
2017-08-23T03:30:23.045Z,14.42
2017-08-23T03:30:51.148Z,14.46
2017-08-23T03:31:19.112Z,14.4
2017-08-23T03:31:47.954Z,14.39
2017-08-23T03:32:16.011Z,14.39
2017-08-23T03:32:44.751Z,14.42
2017-08-23T03:33:12.801Z,14.39
2017-08-23T03:33:40.865Z,14.37
2017-08-23T03:34:08.907Z,14.35
2017-08-23T03:34:36.873Z,14.42
2017-08-23T03:35:04.831Z,14.39
2017-08-23T03:35:32.888Z,14.33
2017-08-23T03:36:01.707Z,14.36
2017-08-23T03:36:30.454Z,14.46
2017-08-23T03:36:58.505Z,14.43
2017-08-23T03:37:26.546Z,14.39
2017-08-23T03:37:54.603Z,14.37
2017-08-23T03:38:23.437Z,14.46
2017-08-23T03:38:52.962Z,14.4
2017-08-23T03:39:21.021Z,14.4
2017-08-23T03:39:49.862Z,14.43
2017-08-23T03:40:17.913Z,14.45
2017-08-23T03:40:46.015Z,14.37
2017-08-23T03:41:13.973Z,14.36
2017-08-23T03:41:41.935Z,14.4
2017-08-23T03:42:09.892Z,14.35
2017-08-23T03:42:37.856Z,14.36
2017-08-23T03:43:06.689Z,14.36
2017-08-23T03:43:34.657Z,14.33
2017-08-23T03:44:02.712Z,14.32
2017-08-23T03:44:31.610Z,14.37
2017-08-23T03:44:59.566Z,14.39
2017-08-23T03:45:27.615Z,14.4
2017-08-23T03:45:55.568Z,14.39
2017-08-23T03:46:24.390Z,14.32
2017-08-23T03:46:52.338Z,14.39
2017-08-23T03:47:20.374Z,14.32
2017-08-23T03:47:48.323Z,14.33
2017-08-23T03:48:17.158Z,14.4
2017-08-23T03:48:45.210Z,14.36
2017-08-23T03:49:13.953Z,14.36
2017-08-23T03:49:42.790Z,14.33
2017-08-23T03:50:10.831Z,14.33
2017-08-23T03:50:38.794Z,14.32
2017-08-23T03:51:06.752Z,14.28
2017-08-23T03:51:34.802Z,14.29
2017-08-23T03:52:02.862Z,14.27
2017-08-23T03:52:30.918Z,14.24
2017-08-23T03:52:59.071Z,14.27
2017-08-23T03:53:27.006Z,14.36
2017-08-23T03:53:55.843Z,14.33
2017-08-23T03:54:23.893Z,14.25
2017-08-23T03:54:52.734Z,14.36
2017-08-23T03:55:59.062Z,14.25
2017-08-23T03:56:27.014Z,14.21
2017-08-23T03:56:55.063Z,14.29
2017-08-23T03:57:23.017Z,14.29
2017-08-23T03:57:51.843Z,14.29
2017-08-23T03:58:20.677Z,14.33
2017-08-23T03:58:48.628Z,14.24
2017-08-23T03:59:17.383Z,14.28
2017-08-23T03:59:45.480Z,14.27
2017-08-23T04:00:14.308Z,14.32
2017-08-23T04:00:42.356Z,14.29
2017-08-23T04:01:10.402Z,14.33
2017-08-23T04:01:38.386Z,14.25
2017-08-23T04:02:07.034Z,14.32
2017-08-23T04:02:35.078Z,14.28
2017-08-23T04:03:04.690Z,14.29
2017-08-23T04:03:32.729Z,14.35
2017-08-23T04:04:00.691Z,14.29
2017-08-23T04:04:28.640Z,14.36
2017-08-23T04:04:57.472Z,14.28
2017-08-23T04:05:25.531Z,14.35
2017-08-23T04:05:54.370Z,14.32
2017-08-23T04:06:22.426Z,14.27
2017-08-23T04:06:51.265Z,14.27
2017-08-23T04:07:19.224Z,14.29
2017-08-23T04:07:47.085Z,14.29
2017-08-23T04:08:15.917Z,14.17
2017-08-23T04:08:43.965Z,14.27
2017-08-23T04:09:12.009Z,14.29
2017-08-23T04:09:39.964Z,14.29
2017-08-23T04:10:07.834Z,14.32
2017-08-23T04:10:35.887Z,14.28
2017-08-23T04:11:03.947Z,14.35
2017-08-23T04:11:31.906Z,14.17
2017-08-23T04:12:00.735Z,14.18
2017-08-23T04:12:28.786Z,14.2
2017-08-23T04:12:56.760Z,14.2
2017-08-23T04:13:25.500Z,14.15
2017-08-23T04:13:53.456Z,14.14
2017-08-23T04:14:21.498Z,14.17
2017-08-23T04:14:49.698Z,14.2
2017-08-23T04:15:17.737Z,14.17
2017-08-23T04:15:45.701Z,14.18
2017-08-23T04:16:13.751Z,14.18
2017-08-23T04:16:41.798Z,14.18
2017-08-23T04:17:10.627Z,14.18
2017-08-23T04:17:38.615Z,14.14
2017-08-23T04:18:06.581Z,14.18
2017-08-23T04:18:34.555Z,14.2
2017-08-23T04:19:03.296Z,14.22
2017-08-23T04:19:31.546Z,14.27
2017-08-23T04:20:00.385Z,14.21
2017-08-23T04:20:29.214Z,14.18
2017-08-23T04:20:58.053Z,14.17
2017-08-23T04:21:26.106Z,14.17
2017-08-23T04:21:54.162Z,14.18
2017-08-23T04:22:22.208Z,14.22
2017-08-23T04:22:51.817Z,14.15
2017-08-23T04:23:19.782Z,14.15
2017-08-23T04:23:47.746Z,14.15
2017-08-23T04:24:16.230Z,14.24
2017-08-23T04:24:45.064Z,14.14
2017-08-23T04:25:13.803Z,14.14
2017-08-23T04:25:41.745Z,14.17
2017-08-23T04:26:11.352Z,14.09
2017-08-23T04:26:39.395Z,14.07
2017-08-23T04:27:08.222Z,14.14
2017-08-23T04:27:36.179Z,14.14
2017-08-23T04:28:04.239Z,14.15
2017-08-23T04:28:32.291Z,14.1
2017-08-23T04:29:00.257Z,14.12
2017-08-23T04:29:28.306Z,14.04
2017-08-23T04:29:57.245Z,14.15
2017-08-23T04:30:25.300Z,14.07
2017-08-23T04:30:53.346Z,14.02
2017-08-23T04:31:21.315Z,14.02
2017-08-23T04:31:49.367Z,14.02
2017-08-23T04:32:17.407Z,14.06
2017-08-23T04:32:45.433Z,14
2017-08-23T04:33:13.293Z,14.02
2017-08-23T04:33:41.345Z,14
2017-08-23T04:34:09.379Z,14
2017-08-23T04:35:15.808Z,14.04
2017-08-23T04:35:43.850Z,13.95
2017-08-23T04:36:11.896Z,14.04
2017-08-23T04:36:40.622Z,14.03
2017-08-23T04:37:08.871Z,13.88
2017-08-23T04:37:36.919Z,13.91
2017-08-23T04:38:04.960Z,14.07
2017-08-23T04:38:33.012Z,14.03
2017-08-23T04:39:01.746Z,14.03
2017-08-23T04:39:29.791Z,13.99
2017-08-23T04:39:57.842Z,13.96
2017-08-23T04:40:26.578Z,13.99
2017-08-23T04:40:54.630Z,14.03
2017-08-23T04:41:22.681Z,13.97
2017-08-23T04:41:50.732Z,14.03
2017-08-23T04:42:19.561Z,13.96
2017-08-23T04:42:48.388Z,14.02
2017-08-23T04:43:16.342Z,14.04
2017-08-23T04:43:44.388Z,13.97
2017-08-23T04:44:13.219Z,13.97
2017-08-23T04:44:41.186Z,13.97
2017-08-23T04:45:09.933Z,13.96
2017-08-23T04:45:38.241Z,14.04
2017-08-23T04:46:06.206Z,13.97
2017-08-23T04:46:34.253Z,13.96
2017-08-23T04:47:02.114Z,13.95
2017-08-23T04:47:30.163Z,13.91
2017-08-23T04:47:58.997Z,14.02
2017-08-23T04:48:27.829Z,13.92
2017-08-23T04:48:55.783Z,13.95
2017-08-23T04:49:24.624Z,13.99
2017-08-23T04:49:52.581Z,13.96
2017-08-23T04:50:20.634Z,14.03
2017-08-23T04:50:48.686Z,13.99
2017-08-23T04:51:16.638Z,13.96
2017-08-23T04:51:45.462Z,13.92
2017-08-23T04:52:14.290Z,13.95
2017-08-23T04:52:42.331Z,13.96
2017-08-23T04:53:10.382Z,13.92
2017-08-23T04:53:38.237Z,13.92
2017-08-23T04:54:07.069Z,13.97
2017-08-23T04:54:35.019Z,13.88
2017-08-23T04:55:03.862Z,13.85
2017-08-23T04:55:31.915Z,13.91
2017-08-23T04:55:59.962Z,13.88
2017-08-23T04:56:28.800Z,13.89
2017-08-23T04:56:56.759Z,13.85
2017-08-23T04:57:25.596Z,13.96
2017-08-23T04:57:54.344Z,13.85
2017-08-23T04:58:23.180Z,13.85
2017-08-23T04:58:52.016Z,13.91
2017-08-23T04:59:20.058Z,13.97
2017-08-23T04:59:48.806Z,13.85
2017-08-23T05:00:16.847Z,13.95
2017-08-23T05:00:45.188Z,14
2017-08-23T05:01:14.014Z,13.95
2017-08-23T05:01:42.846Z,13.89
2017-08-23T05:02:11.671Z,13.91
2017-08-23T05:02:39.728Z,13.89
2017-08-23T05:03:07.785Z,13.97
2017-08-23T05:03:35.745Z,13.97
2017-08-23T05:04:04.499Z,13.95
2017-08-23T05:04:32.459Z,13.99
2017-08-23T05:05:00.412Z,13.97
2017-08-23T05:05:28.369Z,13.95
2017-08-23T05:05:56.416Z,13.92
2017-08-23T05:06:24.367Z,13.95
2017-08-23T05:06:53.193Z,13.96
2017-08-23T05:07:21.164Z,14.02
2017-08-23T05:07:49.996Z,13.96
2017-08-23T05:08:18.054Z,14
2017-08-23T05:08:46.013Z,14.02
2017-08-23T05:09:14.073Z,14
2017-08-23T05:09:42.029Z,14.04
2017-08-23T05:10:10.070Z,13.99
2017-08-23T05:10:38.036Z,13.92
2017-08-23T05:11:06.093Z,13.99
2017-08-23T05:11:34.046Z,13.99
2017-08-23T05:12:01.983Z,13.99
2017-08-23T05:12:31.588Z,14.02
2017-08-23T05:13:00.417Z,13.99
2017-08-23T05:13:29.059Z,14.03
2017-08-23T05:14:35.388Z,14.04
2017-08-23T05:15:03.421Z,14.03
2017-08-23T05:15:31.383Z,14.04
2017-08-23T05:15:59.424Z,14.06
2017-08-23T05:16:27.471Z,14.07
2017-08-23T05:16:56.304Z,14.02
2017-08-23T05:17:25.734Z,13.99
2017-08-23T05:17:53.701Z,14.02
2017-08-23T05:18:21.731Z,13.96
2017-08-23T05:18:50.468Z,14.04
2017-08-23T05:19:18.352Z,14
2017-08-23T05:19:46.393Z,13.96
2017-08-23T05:20:14.441Z,13.96
2017-08-23T05:20:42.493Z,13.97
2017-08-23T05:21:10.547Z,13.99
2017-08-23T05:21:38.586Z,14.03
2017-08-23T05:22:06.624Z,14.02
2017-08-23T05:22:35.451Z,13.99
2017-08-23T05:23:04.279Z,13.96
2017-08-23T05:23:32.227Z,13.99
2017-08-23T05:24:00.198Z,13.97
2017-08-23T05:24:28.080Z,13.97
2017-08-23T05:24:56.042Z,13.91
2017-08-23T05:25:24.878Z,13.91
2017-08-23T05:25:52.834Z,13.97
2017-08-23T05:26:20.877Z,13.97
2017-08-23T05:26:49.706Z,13.99
2017-08-23T05:27:17.752Z,13.88
2017-08-23T05:27:46.490Z,13.92
2017-08-23T05:28:15.220Z,13.87
2017-08-23T05:28:43.184Z,13.85
2017-08-23T05:29:12.230Z,13.92
2017-08-23T05:29:40.282Z,13.97
2017-08-23T05:30:08.245Z,13.91
2017-08-23T05:30:36.289Z,13.82
2017-08-23T05:31:04.432Z,13.99
2017-08-23T05:31:33.410Z,13.97
2017-08-23T05:32:02.148Z,13.88
2017-08-23T05:32:30.101Z,13.97
2017-08-23T05:32:58.926Z,13.97
2017-08-23T05:33:26.975Z,13.97
2017-08-23T05:33:55.623Z,13.96
2017-08-23T05:34:23.676Z,13.99
2017-08-23T05:34:52.515Z,14.06
2017-08-23T05:35:20.566Z,14.03
2017-08-23T05:35:48.773Z,14
2017-08-23T05:36:16.820Z,14.07
2017-08-23T05:36:44.796Z,14
2017-08-23T05:37:12.856Z,14.07
2017-08-23T05:37:42.120Z,14.02
2017-08-23T05:38:10.080Z,13.97
2017-08-23T05:38:38.041Z,14.03
2017-08-23T05:39:06.102Z,13.89
2017-08-23T05:39:34.149Z,14
2017-08-23T05:40:02.203Z,14.02
2017-08-23T05:40:30.071Z,13.92
2017-08-23T05:40:57.943Z,13.95
2017-08-23T05:41:26.680Z,13.95
2017-08-23T05:41:55.525Z,13.85
2017-08-23T05:42:24.276Z,13.95
2017-08-23T05:42:52.229Z,13.91
2017-08-23T05:43:20.975Z,13.92
2017-08-23T05:43:49.024Z,13.89
2017-08-23T05:44:17.847Z,13.84
2017-08-23T05:44:45.796Z,13.87
2017-08-23T05:45:13.745Z,13.82
2017-08-23T05:45:41.700Z,13.82
2017-08-23T05:46:09.717Z,13.85
2017-08-23T05:46:38.551Z,13.89
2017-08-23T05:47:06.607Z,13.92
2017-08-23T05:47:34.663Z,13.87
2017-08-23T05:48:03.493Z,13.88
2017-08-23T05:48:31.559Z,13.87
2017-08-23T05:48:59.602Z,13.89
2017-08-23T05:49:27.646Z,13.89
2017-08-23T05:49:55.704Z,13.84
2017-08-23T05:50:24.546Z,13.81
2017-08-23T05:50:52.593Z,13.78
2017-08-23T05:51:20.620Z,13.84
2017-08-23T05:51:48.657Z,13.81
2017-08-23T05:52:17.486Z,13.82
2017-08-23T05:52:45.341Z,13.71
2017-08-23T05:53:51.675Z,13.81
2017-08-23T05:54:19.719Z,13.81
2017-08-23T05:54:47.766Z,13.75
2017-08-23T05:55:15.806Z,13.73
2017-08-23T05:55:43.777Z,13.81
2017-08-23T05:56:12.613Z,13.82
2017-08-23T05:56:40.653Z,13.78
2017-08-23T05:57:08.620Z,13.82
2017-08-23T05:57:36.563Z,13.78
2017-08-23T05:58:05.033Z,13.82
2017-08-23T05:58:33.079Z,13.84
2017-08-23T05:59:01.126Z,13.85
2017-08-23T05:59:29.956Z,13.82
2017-08-23T05:59:58.004Z,13.82
2017-08-23T06:00:26.654Z,13.77
2017-08-23T06:00:54.603Z,13.71
2017-08-23T06:01:24.379Z,13.71
2017-08-23T06:01:52.338Z,13.78
2017-08-23T06:02:20.380Z,13.75
2017-08-23T06:02:48.424Z,13.77
2017-08-23T06:03:18.829Z,13.7
2017-08-23T06:03:46.892Z,13.7
2017-08-23T06:04:14.674Z,13.71
2017-08-23T06:04:43.509Z,13.7
2017-08-23T06:05:11.468Z,13.71
2017-08-23T06:05:40.206Z,13.7
2017-08-23T06:06:09.137Z,13.81
2017-08-23T06:06:37.099Z,13.71
2017-08-23T06:07:05.258Z,13.69
2017-08-23T06:07:34.086Z,13.69
2017-08-23T06:08:02.143Z,13.85
2017-08-23T06:08:30.107Z,13.84
2017-08-23T06:08:58.160Z,13.75
2017-08-23T06:09:26.990Z,13.71
2017-08-23T06:09:55.036Z,13.81
2017-08-23T06:10:23.139Z,13.81
2017-08-23T06:10:52.176Z,13.87
2017-08-23T06:11:20.219Z,13.78